createdAt,value
2022-08-16T00:01:28.868Z,68.26
2022-08-16T00:04:02.158Z,68.60
2022-08-16T00:06:33.549Z,68.95
2022-08-16T00:09:02.872Z,69.42
2022-08-16T00:11:30.880Z,69.63
2022-08-16T00:13:59.593Z,69.71
2022-08-16T00:17:05.736Z,70.08
2022-08-16T00:19:24.605Z,70.77
2022-08-16T00:22:01.617Z,70.62
2022-08-16T00:24:36.295Z,71.25
2022-08-16T00:27:06.697Z,71.80
2022-08-16T00:29:36.579Z,71.77
2022-08-16T00:32:07.975Z,71.70
2022-08-16T00:34:43.392Z,70.94
2022-08-16T00:37:16.877Z,70.36
2022-08-16T00:39:57.720Z,70.42
2022-08-16T00:42:31.844Z,70.49
2022-08-16T00:45:06.276Z,70.20
2022-08-16T00:47:37.993Z,70.37
2022-08-16T00:50:11.403Z,69.97
2022-08-16T00:52:50.863Z,70.38
2022-08-16T00:55:23.350Z,70.52
2022-08-16T00:57:58.490Z,70.39
2022-08-16T01:00:31.055Z,70.55
2022-08-16T01:03:03.563Z,70.39
2022-08-16T01:05:32.972Z,69.99
2022-08-16T01:08:02.702Z,69.91
2022-08-16T01:10:53.169Z,70.39
2022-08-16T01:13:23.952Z,70.53
2022-08-16T01:15:58.335Z,71.17
2022-08-16T01:18:40.061Z,71.35
2022-08-16T01:21:33.931Z,71.23
2022-08-16T01:24:53.456Z,71.52
2022-08-16T01:27:09.081Z,71.56
2022-08-16T01:29:58.691Z,71.68
2022-08-16T01:32:31.872Z,71.26
2022-08-16T01:35:09.372Z,71.23
2022-08-16T01:37:54.141Z,71.31
2022-08-16T01:40:31.448Z,71.26
2022-08-16T01:43:00.116Z,71.76
2022-08-16T01:45:40.852Z,72.02
2022-08-16T01:48:19.906Z,71.80
2022-08-16T01:51:09.217Z,72.39
2022-08-16T01:53:42.055Z,72.57
2022-08-16T01:56:29.014Z,72.16
2022-08-16T01:59:00.390Z,71.76
2022-08-16T02:01:31.859Z,71.85
2022-08-16T02:04:10.987Z,71.85
2022-08-16T02:06:45.900Z,71.52
2022-08-16T02:09:17.883Z,71.19
2022-08-16T02:11:53.210Z,71.26
2022-08-16T02:14:26.575Z,71.74
2022-08-16T02:16:57.427Z,71.88
2022-08-16T02:20:00.159Z,72.07
2022-08-16T02:22:36.018Z,71.85
2022-08-16T02:25:14.770Z,71.18
2022-08-16T02:27:47.947Z,71.29
2022-08-16T02:30:35.914Z,72.16
2022-08-16T02:33:08.261Z,71.61
2022-08-16T02:35:49.701Z,71.58
2022-08-16T02:38:24.278Z,71.56
2022-08-16T02:40:54.636Z,71.52
2022-08-16T02:43:26.610Z,71.49
2022-08-16T02:45:58.659Z,72.02
2022-08-16T02:48:30.093Z,71.74
2022-08-16T02:51:06.520Z,71.17
2022-08-16T02:53:45.136Z,71.04
2022-08-16T02:56:16.120Z,71.50
2022-08-16T02:58:48.090Z,71.09
2022-08-16T03:01:24.683Z,70.84
2022-08-16T03:04:39.998Z,70.76
2022-08-16T03:06:56.854Z,71.46
2022-08-16T03:09:48.212Z,71.23
2022-08-16T03:12:30.466Z,71.22
2022-08-16T03:15:08.020Z,71.86
2022-08-16T03:17:37.596Z,72.04
2022-08-16T03:20:32.139Z,72.37
2022-08-16T03:23:03.194Z,72.46
2022-08-16T03:25:41.030Z,72.37
2022-08-16T03:28:12.408Z,72.37
2022-08-16T03:30:42.975Z,72.22
2022-08-16T03:33:14.212Z,72.31
2022-08-16T03:35:49.858Z,72.16
2022-08-16T03:38:35.019Z,71.99
2022-08-16T03:41:24.299Z,72.72
2022-08-16T03:43:56.914Z,72.91
2022-08-16T03:46:47.195Z,73.16
2022-08-16T03:49:23.916Z,73.12
2022-08-16T03:52:07.426Z,73.27
2022-08-16T03:54:38.164Z,73.21
2022-08-16T03:57:16.442Z,72.78
2022-08-16T03:59:45.891Z,72.33
2022-08-16T04:02:22.182Z,72.73
2022-08-16T04:04:54.086Z,72.86
2022-08-16T04:07:24.814Z,72.90
2022-08-16T04:09:53.736Z,72.59
2022-08-16T04:12:53.397Z,71.97
2022-08-16T04:15:16.812Z,71.44
2022-08-16T04:17:57.923Z,71.18
2022-08-16T04:20:33.977Z,70.81
2022-08-16T04:23:08.228Z,70.55
2022-08-16T04:25:38.831Z,70.11
2022-08-16T04:28:29.330Z,69.85
2022-08-16T04:30:59.197Z,69.80
2022-08-16T04:33:34.786Z,69.46
2022-08-16T04:36:04.967Z,69.66
2022-08-16T04:38:34.683Z,69.44
2022-08-16T04:41:03.697Z,70.82
2022-08-16T04:43:38.594Z,71.76
2022-08-16T04:47:00.231Z,70.76
2022-08-16T04:49:05.338Z,70.54
2022-08-16T04:51:35.757Z,70.13
2022-08-16T04:54:05.606Z,70.01
2022-08-16T04:56:34.853Z,69.53
2022-08-16T04:59:11.934Z,68.85
2022-08-16T05:01:58.039Z,68.79
2022-08-16T05:04:30.210Z,69.07
2022-08-16T05:06:59.973Z,69.21
2022-08-16T05:09:45.208Z,69.16
2022-08-16T05:12:18.252Z,68.60
2022-08-16T05:15:02.057Z,68.77
2022-08-16T05:17:32.653Z,68.41
2022-08-16T05:20:35.182Z,67.52
2022-08-16T05:22:56.426Z,67.09
2022-08-16T05:25:24.728Z,67.19
2022-08-16T05:28:11.862Z,67.13
2022-08-16T05:30:44.769Z,67.15
2022-08-16T05:33:21.521Z,66.40
2022-08-16T05:35:55.229Z,66.46
2022-08-16T05:38:47.079Z,65.62
2022-08-16T05:41:17.320Z,65.73
2022-08-16T05:43:48.113Z,64.96
2022-08-16T05:46:34.449Z,65.06
2022-08-16T05:49:10.702Z,63.90
2022-08-16T05:51:45.735Z,63.24
2022-08-16T05:54:25.635Z,64.25
2022-08-16T05:56:57.940Z,63.88
2022-08-16T05:59:29.136Z,63.75
2022-08-16T06:01:59.326Z,63.55
2022-08-16T06:04:35.899Z,63.33
2022-08-16T06:07:24.781Z,63.90
2022-08-16T06:10:05.750Z,63.37
2022-08-16T06:12:36.630Z,63.88
2022-08-16T06:15:11.747Z,63.80
2022-08-16T06:17:44.569Z,62.93
2022-08-16T06:20:24.080Z,62.06
2022-08-16T06:23:03.896Z,61.51
2022-08-16T06:25:52.956Z,61.90
2022-08-16T06:28:36.414Z,61.51
2022-08-16T06:31:12.237Z,59.91
2022-08-16T06:34:53.241Z,60.00
2022-08-16T06:36:59.454Z,59.59
2022-08-16T06:39:30.917Z,59.03
2022-08-16T06:42:07.810Z,59.03
2022-08-16T06:44:51.279Z,58.04
2022-08-16T06:47:56.414Z,58.96
2022-08-16T06:50:28.646Z,58.79
2022-08-16T06:53:06.845Z,58.24
2022-08-16T06:55:43.382Z,57.59
2022-08-16T06:58:22.735Z,57.67
2022-08-16T07:01:10.043Z,57.18
2022-08-16T07:03:55.472Z,44.43
2022-08-16T07:06:31.617Z,35.79
2022-08-16T07:09:09.395Z,28.55
2022-08-16T07:11:48.131Z,26.37
2022-08-16T07:14:28.573Z,25.29
2022-08-16T07:17:01.017Z,25.39
2022-08-16T07:20:03.053Z,25.35
2022-08-16T07:22:39.253Z,22.78
2022-08-16T07:25:24.637Z,21.08
2022-08-16T07:27:54.833Z,20.90
2022-08-16T07:30:26.637Z,22.79
2022-08-16T07:33:52.005Z,22.95
2022-08-16T07:36:14.935Z,22.91
2022-08-16T07:38:51.807Z,22.89
2022-08-16T07:41:20.832Z,21.93
2022-08-16T07:43:56.846Z,22.70
2022-08-16T07:46:37.676Z,21.49
2022-08-16T07:49:20.065Z,18.34
2022-08-16T07:51:48.927Z,18.89
2022-08-16T07:54:32.370Z,18.00
2022-08-16T07:57:12.081Z,19.30
2022-08-16T07:59:46.022Z,17.93
2022-08-16T08:02:20.547Z,18.88
2022-08-16T08:04:54.517Z,20.17
2022-08-16T08:07:23.001Z,22.69
2022-08-16T08:09:57.050Z,18.99
2022-08-16T08:12:32.475Z,17.41
2022-08-16T08:15:10.584Z,16.90
2022-08-16T08:17:42.884Z,17.73
2022-08-16T08:20:26.698Z,18.73
2022-08-16T08:23:01.266Z,19.93
2022-08-16T08:25:55.074Z,18.38
2022-08-16T08:28:31.912Z,16.90
2022-08-16T08:31:05.699Z,16.27
2022-08-16T08:33:38.347Z,17.97
2022-08-16T08:36:21.959Z,20.63
2022-08-16T08:38:53.460Z,18.86
2022-08-16T08:41:28.414Z,21.20
2022-08-16T08:43:58.966Z,21.83
2022-08-16T08:46:35.658Z,19.44
2022-08-16T08:49:08.836Z,19.35
2022-08-16T08:51:42.910Z,19.37
2022-08-16T08:54:18.826Z,17.52
2022-08-16T08:56:53.472Z,19.11
2022-08-16T08:59:40.856Z,21.12
2022-08-16T09:02:15.001Z,19.78
2022-08-16T09:04:52.638Z,20.94
2022-08-16T09:07:23.607Z,19.68
2022-08-16T09:10:06.099Z,19.84
2022-08-16T09:12:37.536Z,19.94
2022-08-16T09:15:21.730Z,18.53
2022-08-16T09:17:57.019Z,17.68
2022-08-16T09:20:30.356Z,17.00
2022-08-16T09:22:59.436Z,16.44
2022-08-16T09:25:33.606Z,18.30
2022-08-16T09:28:09.001Z,19.61
2022-08-16T09:30:43.146Z,20.33
2022-08-16T09:33:20.018Z,20.92
2022-08-16T09:35:53.566Z,20.43
2022-08-16T09:38:31.953Z,18.51
2022-08-16T09:41:01.171Z,17.42
2022-08-16T09:46:48.992Z,17.48
2022-08-16T09:49:08.434Z,18.43
2022-08-16T09:51:37.313Z,18.18
2022-08-16T09:54:09.721Z,19.16
2022-08-16T09:56:52.900Z,18.69
2022-08-16T09:59:23.311Z,20.83
2022-08-16T10:01:53.224Z,18.80
2022-08-16T10:04:30.497Z,21.39
2022-08-16T10:07:12.020Z,21.15
2022-08-16T10:09:54.588Z,22.24
2022-08-16T10:12:43.440Z,24.19
2022-08-16T10:15:16.913Z,25.11
2022-08-16T10:18:01.316Z,27.48
2022-08-16T10:20:35.135Z,23.05
2022-08-16T10:23:07.378Z,19.34
2022-08-16T10:27:20.518Z,20.87
2022-08-16T10:28:31.915Z,19.38
2022-08-16T10:31:03.520Z,18.91
2022-08-16T10:33:35.398Z,21.92
2022-08-16T10:36:39.317Z,20.66
2022-08-16T10:39:02.139Z,21.47
2022-08-16T10:41:32.942Z,21.06
2022-08-16T10:44:01.533Z,20.47
2022-08-16T10:46:39.098Z,19.78
2022-08-16T10:49:09.274Z,17.65
2022-08-16T10:52:02.695Z,18.60
2022-08-16T10:54:30.181Z,18.88
2022-08-16T10:57:04.009Z,18.82
2022-08-16T10:59:45.911Z,19.03
2022-08-16T11:02:58.871Z,18.97
2022-08-16T11:05:14.170Z,20.68
2022-08-16T11:07:52.394Z,23.58
2022-08-16T11:19:05.836Z,18.86
2022-08-16T11:22:38.597Z,19.87
2022-08-16T11:24:42.843Z,23.24
2022-08-16T11:27:23.566Z,28.17
2022-08-16T11:29:54.996Z,27.17
2022-08-16T11:32:31.833Z,28.91
2022-08-16T11:35:10.509Z,30.26
2022-08-16T11:40:33.380Z,29.38
2022-08-16T11:43:05.582Z,28.54
2022-08-16T11:45:35.234Z,27.23
2022-08-16T11:48:07.020Z,26.32
2022-08-16T11:50:35.722Z,24.35
2022-08-16T11:53:06.094Z,25.79
2022-08-16T11:55:39.277Z,25.71
2022-08-16T11:58:14.350Z,28.49
2022-08-16T12:00:51.829Z,27.19
2022-08-16T12:03:34.335Z,27.65
2022-08-16T12:06:30.265Z,26.03
2022-08-16T12:09:02.096Z,25.54
2022-08-16T12:11:33.393Z,25.08
2022-08-16T12:14:04.614Z,24.41
2022-08-16T12:16:34.870Z,25.13
2022-08-16T12:19:04.391Z,26.28
2022-08-16T12:21:35.967Z,26.82
2022-08-16T12:24:22.129Z,24.62
2022-08-16T12:26:54.355Z,24.68
2022-08-16T12:29:23.098Z,26.18
2022-08-16T12:32:01.336Z,25.06
2022-08-16T12:34:50.823Z,26.24
2022-08-16T12:37:23.019Z,28.81
2022-08-16T12:39:52.931Z,28.37
2022-08-16T12:42:24.440Z,27.48
2022-08-16T12:45:04.265Z,26.73
2022-08-16T12:47:50.008Z,27.93
2022-08-16T12:50:20.137Z,25.62
2022-08-16T12:52:53.063Z,25.85
2022-08-16T12:55:23.844Z,27.60
2022-08-16T12:58:03.229Z,27.92
2022-08-16T13:00:43.796Z,27.18
2022-08-16T13:03:12.800Z,26.35
2022-08-16T13:05:47.706Z,27.13
2022-08-16T13:08:27.598Z,26.45
2022-08-16T13:10:59.445Z,25.60
2022-08-16T13:13:29.603Z,25.92
2022-08-16T13:16:03.731Z,29.46
2022-08-16T13:18:36.184Z,30.21
2022-08-16T13:21:05.909Z,29.96
2022-08-16T13:23:35.848Z,28.88
2022-08-16T13:26:04.873Z,27.49
2022-08-16T13:28:34.607Z,26.89
2022-08-16T13:31:29.684Z,26.50
2022-08-16T13:33:58.658Z,25.26
2022-08-16T13:36:47.922Z,26.61
2022-08-16T13:39:15.214Z,25.63
2022-08-16T13:41:43.180Z,23.21
2022-08-16T13:44:12.549Z,23.50
2022-08-16T13:46:44.750Z,23.29
2022-08-16T13:53:24.413Z,25.48
2022-08-16T13:55:57.945Z,24.42
2022-08-16T13:58:37.143Z,25.50
2022-08-16T14:01:17.044Z,24.70
2022-08-16T14:03:45.972Z,24.56
2022-08-16T14:06:15.882Z,24.13
2022-08-16T14:08:58.809Z,25.56
2022-08-16T14:11:34.907Z,26.11
2022-08-16T14:14:05.471Z,26.37
2022-08-16T14:16:34.951Z,25.23
2022-08-16T14:19:03.722Z,25.37
2022-08-16T14:21:34.808Z,25.88
2022-08-16T14:24:08.149Z,23.45
2022-08-16T14:26:52.669Z,22.08
2022-08-16T14:29:21.299Z,24.80
2022-08-16T14:31:54.206Z,23.45
2022-08-16T14:34:25.746Z,24.85
2022-08-16T14:36:58.213Z,23.08
2022-08-16T14:39:29.611Z,24.32
2022-08-16T14:42:04.803Z,23.51
2022-08-16T14:44:33.944Z,24.68
2022-08-16T14:47:04.227Z,21.34
2022-08-16T14:49:34.627Z,21.17
2022-08-16T14:52:08.716Z,22.08
2022-08-16T14:54:39.133Z,22.12
2022-08-16T14:57:08.161Z,21.69
2022-08-16T14:59:41.160Z,21.77
2022-08-16T15:02:27.679Z,22.22
2022-08-16T15:05:04.463Z,21.16
2022-08-16T15:07:35.254Z,21.95
2022-08-16T15:10:06.765Z,21.53
2022-08-16T15:12:36.482Z,21.04
2022-08-16T15:15:13.056Z,24.12
2022-08-16T15:17:56.705Z,22.34
2022-08-16T15:20:29.578Z,20.90
2022-08-16T15:22:59.577Z,21.23
2022-08-16T15:25:31.905Z,22.06
2022-08-16T15:28:04.719Z,21.73
2022-08-16T15:30:58.279Z,21.79
2022-08-16T15:33:25.853Z,22.32
2022-08-16T15:35:58.383Z,21.92
2022-08-16T15:38:43.525Z,22.00
2022-08-16T15:41:47.954Z,24.14
2022-08-16T15:44:22.445Z,22.62
2022-08-16T15:46:55.600Z,22.24
2022-08-16T15:49:34.545Z,19.57
2022-08-16T15:52:11.118Z,20.08
2022-08-16T15:54:51.404Z,20.89
2022-08-16T15:57:21.137Z,21.47
2022-08-16T15:59:56.118Z,21.04
2022-08-16T16:02:29.324Z,21.26
2022-08-16T16:05:01.029Z,22.77
2022-08-16T16:07:31.046Z,21.94
2022-08-16T16:10:00.128Z,21.07
2022-08-16T16:15:22.683Z,22.22
2022-08-16T16:17:52.441Z,22.08
2022-08-16T16:20:21.987Z,22.41
2022-08-16T16:22:53.707Z,22.75
2022-08-16T16:25:21.737Z,22.68
2022-08-16T16:27:55.369Z,23.42
2022-08-16T16:30:32.994Z,23.47
2022-08-16T16:33:21.222Z,23.97
2022-08-16T16:35:54.920Z,24.69
2022-08-16T16:38:28.663Z,23.71
2022-08-16T16:40:57.840Z,24.22
2022-08-16T16:43:31.593Z,24.00
2022-08-16T16:46:03.064Z,25.68
2022-08-16T16:48:51.999Z,26.11
2022-08-16T16:51:23.790Z,27.12
2022-08-16T16:53:57.468Z,27.76
2022-08-16T16:56:31.062Z,27.84
2022-08-16T16:59:04.601Z,27.10
2022-08-16T17:01:59.958Z,26.42
2022-08-16T17:04:31.650Z,26.41
2022-08-16T17:07:01.423Z,25.85
2022-08-16T17:09:30.093Z,26.01
2022-08-16T17:11:58.493Z,25.09
2022-08-16T17:27:59.350Z,25.40
2022-08-16T17:30:45.258Z,27.94
2022-08-16T17:33:15.141Z,29.06
2022-08-16T17:35:55.403Z,30.89
2022-08-16T17:38:38.666Z,31.28
2022-08-16T17:41:12.718Z,31.03
2022-08-16T17:43:44.528Z,31.36
2022-08-16T17:46:51.948Z,33.58
2022-08-16T17:49:02.756Z,31.82
2022-08-16T17:51:30.982Z,33.50
2022-08-16T17:53:59.281Z,33.45
2022-08-16T17:56:27.565Z,36.12
2022-08-16T17:58:57.223Z,35.98
2022-08-16T18:01:28.886Z,38.99
2022-08-16T18:04:09.082Z,39.94
2022-08-16T18:06:38.635Z,40.24
2022-08-16T18:09:07.659Z,39.50
2022-08-16T18:11:41.031Z,41.15
2022-08-16T18:14:11.809Z,40.95
2022-08-16T18:16:40.861Z,40.57
2022-08-16T18:19:09.171Z,41.51
2022-08-16T18:21:54.812Z,41.44
2022-08-16T18:24:24.702Z,41.29
2022-08-16T18:26:52.993Z,41.00
2022-08-16T18:29:22.717Z,41.61
2022-08-16T18:31:51.198Z,42.25
2022-08-16T18:34:20.684Z,42.65
2022-08-16T18:36:48.667Z,43.90
2022-08-16T18:39:16.498Z,44.56
2022-08-16T18:41:47.162Z,43.43
2022-08-16T18:44:26.695Z,43.96
2022-08-16T18:46:58.048Z,44.82
2022-08-16T18:49:26.369Z,45.01
2022-08-16T18:51:57.995Z,44.21
2022-08-16T18:54:28.223Z,44.70
2022-08-16T18:56:58.254Z,45.98
2022-08-16T18:59:29.124Z,44.70
2022-08-16T19:02:05.262Z,46.05
2022-08-16T19:04:54.913Z,45.58
2022-08-16T19:07:31.259Z,46.41
2022-08-16T19:10:01.574Z,46.58
2022-08-16T19:12:38.322Z,46.12
2022-08-16T19:15:15.595Z,47.50
2022-08-16T19:17:46.465Z,46.71
2022-08-16T19:20:16.803Z,47.31
2022-08-16T19:23:04.584Z,47.52
2022-08-16T19:25:46.198Z,47.20
2022-08-16T19:28:46.651Z,47.63
2022-08-16T19:31:06.996Z,47.78
2022-08-16T19:33:37.105Z,48.81
2022-08-16T19:36:05.799Z,48.76
2022-08-16T19:38:34.098Z,48.86
2022-08-16T19:41:02.305Z,48.32
2022-08-16T19:43:30.151Z,48.38
2022-08-16T19:45:58.144Z,48.41
2022-08-16T19:48:26.023Z,48.12
2022-08-16T19:50:55.306Z,48.08
2022-08-16T19:53:23.776Z,48.31
2022-08-16T19:55:51.967Z,47.68
2022-08-16T19:58:20.118Z,47.82
2022-08-16T20:00:54.044Z,48.89
2022-08-16T20:03:25.325Z,49.92
2022-08-16T20:05:55.484Z,49.58
2022-08-16T20:08:23.815Z,49.98
2022-08-16T20:10:52.090Z,49.63
2022-08-16T20:13:23.060Z,49.38
2022-08-16T20:15:51.902Z,49.20
2022-08-16T20:18:24.853Z,49.10
2022-08-16T20:20:55.853Z,49.86
2022-08-16T20:23:25.219Z,50.11
2022-08-16T20:25:55.757Z,49.81
2022-08-16T20:28:51.801Z,49.98
2022-08-16T20:31:13.482Z,50.36
2022-08-16T20:33:41.682Z,50.33
2022-08-16T20:36:16.625Z,50.39
2022-08-16T20:38:47.718Z,50.36
2022-08-16T20:41:16.297Z,50.54
2022-08-16T20:43:45.565Z,50.77
2022-08-16T20:46:14.825Z,50.89
2022-08-16T20:48:43.330Z,50.39
2022-08-16T20:51:13.026Z,50.40
2022-08-16T20:53:42.522Z,50.22
2022-08-16T20:56:12.030Z,49.91
2022-08-16T20:58:40.532Z,50.22
2022-08-16T21:01:09.306Z,50.36
2022-08-16T21:03:37.884Z,50.96
2022-08-16T21:06:06.538Z,51.58
2022-08-16T21:08:52.055Z,52.17
2022-08-16T21:11:23.652Z,51.16
2022-08-16T21:14:00.295Z,50.58
2022-08-16T21:16:29.206Z,50.93
2022-08-16T21:18:57.978Z,51.42
2022-08-16T21:21:33.466Z,50.36
2022-08-16T21:24:04.034Z,50.17
2022-08-16T21:26:32.055Z,51.82
2022-08-16T21:29:00.614Z,52.12
2022-08-16T21:31:29.593Z,52.21
2022-08-16T21:33:58.740Z,51.75
2022-08-16T21:36:34.675Z,51.92
2022-08-16T21:39:07.199Z,52.25
2022-08-16T21:41:36.235Z,52.59
2022-08-16T21:44:05.090Z,52.66
2022-08-16T21:46:34.771Z,52.33
2022-08-16T21:49:04.792Z,53.12
2022-08-16T21:51:33.215Z,52.79
2022-08-16T21:54:01.418Z,52.41
2022-08-16T21:56:31.266Z,53.05
2022-08-16T21:58:59.556Z,53.34
2022-08-16T22:01:27.860Z,54.04
2022-08-16T22:04:01.634Z,54.75
2022-08-16T22:06:44.886Z,55.27
2022-08-16T22:09:16.422Z,55.39
2022-08-16T22:11:46.415Z,55.29
2022-08-16T22:14:14.591Z,55.31
2022-08-16T22:16:44.118Z,55.55
2022-08-16T22:19:13.718Z,55.72
2022-08-16T22:21:42.209Z,55.65
2022-08-16T22:24:10.903Z,55.45
2022-08-16T22:26:43.034Z,56.14
2022-08-16T22:29:15.091Z,56.04
2022-08-16T22:31:45.159Z,55.98
2022-08-16T22:34:15.160Z,55.89
2022-08-16T22:36:43.694Z,55.68
2022-08-16T22:39:15.302Z,55.08
2022-08-16T22:41:45.827Z,56.37
2022-08-16T22:44:15.628Z,55.92
2022-08-16T22:46:44.621Z,55.79
2022-08-16T22:49:13.575Z,55.51
2022-08-16T22:51:41.994Z,55.56
2022-08-16T22:54:45.951Z,55.48
2022-08-16T22:56:58.729Z,55.53
2022-08-16T22:59:30.362Z,55.09
2022-08-16T23:01:59.163Z,55.96
2022-08-16T23:04:27.264Z,55.48
2022-08-16T23:06:55.504Z,55.65
2022-08-16T23:09:23.661Z,55.79
2022-08-16T23:11:51.996Z,55.46
2022-08-16T23:14:20.294Z,55.41
2022-08-16T23:16:49.773Z,55.59
2022-08-16T23:19:18.311Z,55.95
2022-08-16T23:21:49.508Z,55.58
2022-08-16T23:24:20.669Z,56.84
2022-08-16T23:26:49.728Z,56.84
2022-08-16T23:29:24.855Z,57.13
2022-08-16T23:32:00.239Z,56.40
2022-08-16T23:34:30.100Z,56.42
2022-08-16T23:36:58.204Z,56.71
2022-08-16T23:39:27.125Z,56.80
2022-08-16T23:41:55.736Z,56.71
2022-08-16T23:44:58.533Z,55.91
2022-08-16T23:47:13.651Z,55.99
2022-08-16T23:49:57.260Z,56.43
2022-08-16T23:52:53.765Z,55.83
2022-08-16T23:55:18.042Z,56.60
2022-08-16T23:57:47.263Z,56.58
